Time;durP1;ratioP1;P1;durP2;ratioP2;P2;SDS_P1;SDS_P2;PMS_P1;PMS_P2;Temp;Humidity;BMP_temperature;BMP_pressure;BME280_temperature;BME280_humidity;BME280_pressure;Samples;Min_cycle;Max_cycle;Signal;HPM_P1;HPM_P2
2021/03/07 00:00:39;;;;;;;10.15;3.75;;;10.00;99.90;;;;;;5095795;28;20548;-76
2021/03/07 00:03:05;;;;;;;8.45;3.90;;;9.90;99.90;;;;;;5095854;28;20477;-76
2021/03/07 00:05:31;;;;;;;9.38;4.53;;;9.90;99.90;;;;;;5095911;28;20106;-76
2021/03/07 00:07:57;;;;;;;7.00;3.70;;;10.00;99.90;;;;;;5095690;28;20032;-76
2021/03/07 00:10:23;;;;;;;8.98;3.90;;;9.90;99.90;;;;;;5095667;28;20018;-76
2021/03/07 00:12:49;;;;;;;9.27;3.83;;;9.90;99.90;;;;;;5095610;28;20032;-76
2021/03/07 00:15:18;;;;;;;11.50;5.75;;;9.90;99.90;;;;;;5095440;28;20028;-77
2021/03/07 00:17:45;;;;;;;9.18;4.95;;;9.80;99.90;;;;;;5095650;28;20062;-76
2021/03/07 00:20:13;;;;;;;10.90;4.78;;;9.80;99.90;;;;;;5095561;28;20024;-77
2021/03/07 00:22:40;;;;;;;11.38;5.30;;;9.80;99.90;;;;;;5095499;28;20024;-77
2021/03/07 00:25:08;;;;;;;8.00;3.72;;;9.70;99.90;;;;;;5095224;28;20020;-77
2021/03/07 00:27:34;;;;;;;8.00;3.70;;;9.60;99.90;;;;;;5095259;28;20094;-78
2021/03/07 00:30:01;;;;;;;7.20;3.00;;;9.60;99.90;;;;;;5095166;28;20058;-78
2021/03/07 00:32:27;;;;;;;4.00;2.53;;;9.50;99.90;;;;;;5095113;28;20040;-76
2021/03/07 00:34:53;;;;;;;4.03;2.20;;;9.60;99.90;;;;;;5095089;28;20070;-76
2021/03/07 00:37:19;;;;;;;6.18;2.78;;;9.60;99.90;;;;;;5095142;28;20032;-76
2021/03/07 00:39:44;;;;;;;7.25;3.08;;;9.60;99.90;;;;;;5095121;28;20037;-76
2021/03/07 00:42:10;;;;;;;2.95;1.77;;;9.60;99.90;;;;;;5094484;28;20069;-76
2021/03/07 00:44:36;;;;;;;9.48;2.60;;;9.70;99.90;;;;;;5093872;28;20032;-77
2021/03/07 00:47:02;;;;;;;3.70;2.63;;;9.70;99.90;;;;;;5094834;28;20020;-77
2021/03/07 00:49:31;;;;;;;6.13;2.40;;;9.70;99.90;;;;;;5094995;28;20538;-78
2021/03/07 00:51:58;;;;;;;4.88;2.42;;;9.70;99.90;;;;;;5094785;28;20032;-76
2021/03/07 00:54:24;;;;;;;5.68;2.35;;;9.70;99.90;;;;;;5094747;28;20039;-77
2021/03/07 00:56:52;;;;;;;3.72;1.80;;;9.70;99.90;;;;;;5094585;28;20507;-78
2021/03/07 00:59:17;;;;;;;6.47;2.63;;;9.70;99.90;;;;;;5094466;28;20138;-77
2021/03/07 01:01:43;;;;;;;4.63;2.45;;;9.80;99.90;;;;;;5093345;28;20115;-78
2021/03/07 01:04:09;;;;;;;3.00;2.00;;;9.80;99.90;;;;;;5094477;28;20025;-78
2021/03/07 01:06:35;;;;;;;5.45;2.22;;;9.70;99.90;;;;;;5094658;28;20028;-78
2021/03/07 01:09:02;;;;;;;6.78;2.50;;;9.70;99.90;;;;;;5094413;28;20035;-77
2021/03/07 01:11:28;;;;;;;4.47;2.53;;;9.70;99.90;;;;;;5094417;28;20058;-77
2021/03/07 01:13:54;;;;;;;4.18;2.50;;;9.70;99.90;;;;;;5093121;28;20085;-76
2021/03/07 01:16:21;;;;;;;2.90;1.73;;;9.80;99.90;;;;;;5094249;28;20032;-76
2021/03/07 01:18:47;;;;;;;4.25;2.42;;;9.80;99.90;;;;;;5094260;28;20067;-78
2021/03/07 01:21:14;;;;;;;4.53;2.60;;;9.90;99.90;;;;;;5094284;28;20069;-76
2021/03/07 01:23:40;;;;;;;7.82;2.67;;;10.00;99.90;;;;;;5094311;28;20024;-76
2021/03/07 01:26:06;;;;;;;5.97;2.35;;;10.00;99.90;;;;;;5094141;28;20031;-76
2021/03/07 01:28:32;;;;;;;5.25;2.67;;;9.90;99.90;;;;;;5094019;28;20069;-77
2021/03/07 01:30:59;;;;;;;6.68;3.58;;;9.70;99.90;;;;;;5093897;28;20028;-77
2021/03/07 01:33:25;;;;;;;11.05;3.78;;;9.40;99.90;;;;;;5093875;28;20024;-77
2021/03/07 01:35:51;;;;;;;6.03;3.90;;;9.30;99.90;;;;;;5093948;28;20024;-76
2021/03/07 01:38:17;;;;;;;10.18;4.50;;;9.00;99.90;;;;;;5093982;28;20028;-76
2021/03/07 01:40:49;;;;;;;7.70;4.50;;;8.90;99.90;;;;;;5093856;28;20460;-76
2021/03/07 01:43:18;;;;;;;8.55;4.50;;;8.80;99.90;;;;;;5093720;28;20028;-76
2021/03/07 01:45:44;;;;;;;8.48;4.72;;;8.80;99.90;;;;;;5093825;28;20024;-76
2021/03/07 01:48:12;;;;;;;6.50;3.65;;;8.80;99.90;;;;;;5093679;28;20032;-76
2021/03/07 01:50:41;;;;;;;9.93;3.60;;;8.70;99.90;;;;;;5093595;28;20107;-76
2021/03/07 01:53:08;;;;;;;10.48;3.75;;;8.70;99.90;;;;;;5092659;28;20469;-76
2021/03/07 01:55:36;;;;;;;10.02;4.10;;;8.70;99.90;;;;;;5093539;28;20051;-76
2021/03/07 01:58:25;;;;;;;7.88;3.80;;;8.80;99.90;;;;;;5093233;28;20044;-76
2021/03/07 02:00:51;;;;;;;7.85;4.20;;;8.90;99.90;;;;;;5092174;28;20028;-76
2021/03/07 02:03:17;;;;;;;7.75;4.32;;;8.90;99.90;;;;;;5093346;28;20045;-76
2021/03/07 02:05:45;;;;;;;11.90;4.80;;;8.90;99.90;;;;;;5093394;28;20028;-76
2021/03/07 02:08:12;;;;;;;8.95;3.72;;;8.90;99.90;;;;;;5093346;28;20024;-76
2021/03/07 02:10:52;;;;;;;14.52;4.45;;;8.70;99.90;;;;;;5093341;28;20069;-75
2021/03/07 02:13:32;;;;;;;9.23;4.38;;;8.60;99.90;;;;;;5093073;28;20036;-76
2021/03/07 02:16:02;;;;;;;8.35;4.55;;;8.50;99.90;;;;;;5091748;28;20036;-76
2021/03/07 02:18:29;;;;;;;7.35;4.47;;;8.50;99.90;;;;;;5093178;28;20038;-77
2021/03/07 02:21:30;;;;;;;8.68;3.90;;;8.30;99.90;;;;;;5093151;28;20161;-77
2021/03/07 02:24:09;;;;;;;8.80;4.10;;;8.10;99.90;;;;;;5093027;28;20035;-77
2021/03/07 02:26:41;;;;;;;8.07;3.70;;;8.10;99.90;;;;;;5092043;28;20107;-76
2021/03/07 02:29:12;;;;;;;11.02;4.20;;;8.00;99.90;;;;;;5093052;28;20028;-76
2021/03/07 02:31:43;;;;;;;7.78;3.95;;;7.90;99.90;;;;;;5091951;28;20031;-77
2021/03/07 02:34:16;;;;;;;9.80;4.40;;;8.00;99.90;;;;;;5091776;28;20089;-77
2021/03/07 02:36:48;;;;;;;6.72;3.67;;;8.00;99.90;;;;;;5093177;28;20399;-76
2021/03/07 02:39:16;;;;;;;7.05;3.10;;;7.90;99.90;;;;;;5092878;28;20538;-76
2021/03/07 02:41:43;;;;;;;7.63;3.72;;;7.80;99.90;;;;;;5092877;28;20080;-76
2021/03/07 02:44:14;;;;;;;7.72;3.00;;;7.80;99.90;;;;;;5092661;28;20036;-77
2021/03/07 02:46:41;;;;;;;7.00;3.38;;;7.70;99.90;;;;;;5092666;28;20030;-77
2021/03/07 02:49:14;;;;;;;7.82;2.97;;;7.70;99.90;;;;;;5091528;28;20047;-76
2021/03/07 02:51:41;;;;;;;9.40;3.45;;;7.80;99.90;;;;;;5092603;28;20035;-77
2021/03/07 02:54:09;;;;;;;6.82;2.55;;;7.80;99.90;;;;;;5091401;28;20032;-76
2021/03/07 02:56:37;;;;;;;8.85;3.00;;;7.90;99.90;;;;;;5092758;28;20024;-76
2021/03/07 02:59:10;;;;;;;5.75;2.83;;;7.90;99.90;;;;;;5092400;28;20044;-76
2021/03/07 03:01:38;;;;;;;5.18;2.55;;;8.00;99.90;;;;;;5092610;28;20071;-75
2021/03/07 03:04:05;;;;;;;7.07;2.25;;;8.10;99.90;;;;;;5094012;28;20028;-76
2021/03/07 03:06:33;;;;;;;5.40;1.70;;;8.20;99.90;;;;;;5099297;28;20020;-76
2021/03/07 03:09:00;;;;;;;8.05;2.72;;;8.30;99.90;;;;;;5099356;28;20031;-76
2021/03/07 03:11:34;;;;;;;9.48;1.88;;;8.30;99.90;;;;;;5099586;28;20032;-77
2021/03/07 03:14:01;;;;;;;3.97;1.90;;;8.40;99.90;;;;;;5099288;28;20481;-77
2021/03/07 03:16:29;;;;;;;3.15;1.80;;;8.50;99.90;;;;;;5099370;28;20020;-77
2021/03/07 03:18:57;;;;;;;5.93;2.08;;;8.50;99.90;;;;;;5099208;28;20028;-78
2021/03/07 03:21:23;;;;;;;8.35;1.70;;;8.60;99.90;;;;;;5099083;28;20056;-76
2021/03/07 03:23:50;;;;;;;4.80;1.98;;;8.60;99.90;;;;;;5099108;28;20016;-76
2021/03/07 03:26:19;;;;;;;5.75;2.63;;;8.60;99.90;;;;;;5099113;28;20089;-77
2021/03/07 03:28:47;;;;;;;7.00;1.90;;;8.60;99.90;;;;;;5099128;28;20073;-78
2021/03/07 03:31:13;;;;;;;8.00;2.05;;;8.60;99.90;;;;;;5098940;28;20020;-76
2021/03/07 03:33:39;;;;;;;3.40;2.38;;;8.70;99.90;;;;;;5099064;28;20059;-76
2021/03/07 03:36:06;;;;;;;6.93;2.45;;;8.70;99.90;;;;;;5099146;28;20063;-78
2021/03/07 03:38:42;;;;;;;5.00;2.30;;;8.70;99.90;;;;;;5098959;28;20043;-76
2021/03/07 03:41:09;;;;;;;3.50;1.95;;;8.70;99.90;;;;;;5099355;28;20380;-77
2021/03/07 03:43:36;;;;;;;5.45;1.88;;;8.70;99.90;;;;;;5097828;28;20388;-78
2021/03/07 03:46:05;;;;;;;8.50;2.38;;;8.80;99.90;;;;;;5098949;28;20028;-78
2021/03/07 03:48:38;;;;;;;7.28;2.30;;;8.80;99.90;;;;;;5098965;28;20097;-78
2021/03/07 03:51:06;;;;;;;6.00;2.53;;;8.90;99.90;;;;;;5098851;28;20020;-76
2021/03/07 03:53:34;;;;;;;4.10;2.00;;;8.90;99.90;;;;;;5097768;28;20071;-76
2021/03/07 03:56:01;;;;;;;4.68;2.15;;;8.80;99.90;;;;;;5098602;28;20049;-76
2021/03/07 03:58:31;;;;;;;7.55;2.38;;;8.80;99.90;;;;;;5098769;28;20062;-76
2021/03/07 04:00:58;;;;;;;4.35;2.25;;;8.80;99.90;;;;;;5098817;28;20051;-76
2021/03/07 04:03:25;;;;;;;6.95;2.63;;;8.90;99.90;;;;;;5098669;28;20020;-76
2021/03/07 04:05:52;;;;;;;5.97;2.72;;;9.00;99.90;;;;;;5099021;28;20030;-76
2021/03/07 04:08:20;;;;;;;4.35;2.22;;;9.10;99.90;;;;;;5097490;28;20028;-77
2021/03/07 04:10:46;;;;;;;5.38;2.53;;;9.20;99.90;;;;;;5098721;28;20024;-76
2021/03/07 04:13:17;;;;;;;7.15;2.35;;;9.20;99.90;;;;;;5098445;28;20370;-78
2021/03/07 04:15:44;;;;;;;4.00;2.30;;;9.30;99.90;;;;;;5095700;28;20031;-76
2021/03/07 04:18:14;;;;;;;5.18;2.38;;;9.30;99.90;;;;;;5095409;28;20523;-78
2021/03/07 04:20:42;;;;;;;4.78;2.40;;;9.40;99.90;;;;;;5095495;28;20385;-76
2021/03/07 04:23:08;;;;;;;5.78;2.25;;;9.40;99.90;;;;;;5095374;28;20040;-77
2021/03/07 04:25:36;;;;;;;8.80;2.15;;;9.50;99.90;;;;;;5095366;28;20400;-76
2021/03/07 04:28:03;;;;;;;4.35;2.33;;;9.50;99.90;;;;;;5094207;28;20059;-76
2021/03/07 04:30:30;;;;;;;7.45;2.72;;;9.50;99.90;;;;;;5095398;28;20024;-78
2021/03/07 04:32:58;;;;;;;5.88;2.88;;;9.50;99.90;;;;;;5095029;28;20036;-77
2021/03/07 04:35:24;;;;;;;6.25;2.50;;;9.50;99.90;;;;;;5095173;28;20468;-76
2021/03/07 04:37:50;;;;;;;6.40;2.33;;;9.30;99.90;;;;;;5095012;28;20028;-76
2021/03/07 04:40:17;;;;;;;5.63;2.78;;;9.10;99.90;;;;;;5093879;28;20028;-76
2021/03/07 04:42:43;;;;;;;6.65;2.42;;;9.00;99.90;;;;;;5094951;28;20031;-76
2021/03/07 04:45:14;;;;;;;12.45;2.65;;;8.80;99.90;;;;;;5095002;28;20047;-77
2021/03/07 04:47:44;;;;;;;7.43;3.20;;;8.70;99.90;;;;;;5095015;28;20074;-77
2021/03/07 04:50:14;;;;;;;6.63;2.40;;;8.70;99.90;;;;;;5094886;28;20036;-77
2021/03/07 04:52:41;;;;;;;6.25;2.55;;;8.70;99.90;;;;;;5094844;28;20035;-78
2021/03/07 04:55:08;;;;;;;5.68;2.67;;;8.70;99.90;;;;;;5093364;28;20052;-76
2021/03/07 04:57:34;;;;;;;8.27;2.42;;;8.60;99.90;;;;;;5094549;28;20032;-76
2021/03/07 05:00:01;;;;;;;5.63;2.50;;;8.60;99.90;;;;;;5093426;28;20479;-78
2021/03/07 05:02:27;;;;;;;6.85;2.80;;;8.50;99.90;;;;;;5094598;28;20035;-78
2021/03/07 05:04:53;;;;;;;6.20;2.63;;;8.60;99.90;;;;;;5094613;28;20028;-76
2021/03/07 05:07:19;;;;;;;7.40;2.72;;;8.60;99.90;;;;;;5094681;28;20035;-76
2021/03/07 05:09:45;;;;;;;5.93;2.55;;;8.70;99.90;;;;;;5094479;28;20023;-76
2021/03/07 05:12:11;;;;;;;7.78;2.58;;;8.70;99.90;;;;;;5094233;28;20161;-76
2021/03/07 05:14:37;;;;;;;7.22;2.88;;;8.70;99.90;;;;;;5094333;28;20088;-76
2021/03/07 05:17:03;;;;;;;5.18;2.90;;;8.70;99.90;;;;;;5094319;28;20020;-76
2021/03/07 05:19:28;;;;;;;5.03;2.75;;;8.70;99.90;;;;;;5094310;28;20028;-77
2021/03/07 05:21:54;;;;;;;7.28;3.05;;;8.70;99.90;;;;;;5094427;28;20392;-76
2021/03/07 05:24:20;;;;;;;6.28;2.80;;;8.70;99.90;;;;;;5094166;28;20029;-77
2021/03/07 05:26:46;;;;;;;5.15;2.10;;;8.80;99.90;;;;;;5094008;28;20553;-77
2021/03/07 05:29:12;;;;;;;4.72;2.17;;;8.70;99.90;;;;;;5093095;28;20062;-76
2021/03/07 05:31:38;;;;;;;4.05;2.53;;;8.80;99.90;;;;;;5093989;28;20111;-77
2021/03/07 05:34:04;;;;;;;5.55;2.28;;;8.80;99.90;;;;;;5093987;28;20032;-76
2021/03/07 05:36:30;;;;;;;7.35;3.40;;;8.90;99.90;;;;;;5094113;28;20024;-76
2021/03/07 05:38:56;;;;;;;9.18;2.95;;;9.00;99.90;;;;;;5093888;28;20032;-76
2021/03/07 05:41:22;;;;;;;6.60;2.92;;;9.10;99.90;;;;;;5093888;28;20073;-76
2021/03/07 05:43:49;;;;;;;6.38;3.72;;;9.20;99.90;;;;;;5093795;28;20409;-76
2021/03/07 05:46:15;;;;;;;8.27;2.88;;;9.30;99.90;;;;;;5093782;28;20062;-76
2021/03/07 05:48:41;;;;;;;4.72;2.38;;;9.50;99.90;;;;;;5093669;28;20092;-76
2021/03/07 05:51:14;;;;;;;5.65;3.25;;;9.50;99.90;;;;;;5093955;28;20020;-77
2021/03/07 05:53:51;;;;;;;8.93;4.10;;;9.60;99.90;;;;;;5093671;28;20032;-76
2021/03/07 05:56:18;;;;;;;6.00;2.88;;;9.70;99.90;;;;;;5093887;28;20027;-76
2021/03/07 05:58:45;;;;;;;6.18;3.08;;;9.70;99.90;;;;;;5093467;28;20044;-76
2021/03/07 06:01:11;;;;;;;11.45;4.65;;;9.80;99.90;;;;;;5093788;28;20047;-76
2021/03/07 06:03:37;;;;;;;8.93;3.38;;;9.80;99.90;;;;;;5093480;28;20031;-76
2021/03/07 06:06:03;;;;;;;7.72;3.70;;;9.80;99.90;;;;;;5093347;28;20024;-76
2021/03/07 06:08:29;;;;;;;9.07;4.18;;;9.80;99.90;;;;;;5093469;28;20024;-76
2021/03/07 06:10:55;;;;;;;8.30;4.38;;;9.80;99.90;;;;;;5093284;28;20115;-77
2021/03/07 06:13:21;;;;;;;8.02;3.80;;;9.90;99.90;;;;;;5093212;28;20032;-76
2021/03/07 06:16:05;;;;;;;9.27;3.63;;;10.10;99.90;;;;;;5093463;28;20435;-76
2021/03/07 06:18:39;;;;;;;7.43;3.55;;;10.10;99.90;;;;;;5093181;28;20392;-76
2021/03/07 06:21:32;;;;;;;6.90;3.75;;;10.10;99.90;;;;;;5093000;28;20024;-76
2021/03/07 06:24:00;;;;;;;7.55;4.30;;;10.20;99.90;;;;;;5093086;28;20044;-76
2021/03/07 06:26:26;;;;;;;7.15;4.25;;;10.20;99.90;;;;;;5093055;28;20492;-77
2021/03/07 06:29:12;;;;;;;8.95;4.10;;;10.20;99.90;;;;;;5093197;28;20051;-77
2021/03/07 06:31:40;;;;;;;8.50;3.58;;;10.30;99.90;;;;;;5092821;28;20111;-76
2021/03/07 06:34:06;;;;;;;8.98;4.07;;;10.30;99.90;;;;;;5091606;28;20035;-76
2021/03/07 06:36:32;;;;;;;8.68;4.03;;;10.40;99.90;;;;;;5092961;28;20024;-76
2021/03/07 06:39:01;;;;;;;7.30;4.30;;;10.40;99.90;;;;;;5092471;28;20020;-76
2021/03/07 06:41:29;;;;;;;9.18;4.32;;;10.40;99.90;;;;;;5093004;28;20067;-77
2021/03/07 06:44:13;;;;;;;7.75;3.97;;;10.50;99.90;;;;;;5092778;28;20028;-77
2021/03/07 06:46:42;;;;;;;9.05;4.70;;;10.60;99.90;;;;;;5092764;28;20388;-77
2021/03/07 06:49:24;;;;;;;9.10;4.22;;;10.60;99.90;;;;;;5092677;28;20078;-76
2021/03/07 06:51:50;;;;;;;6.18;3.70;;;10.70;99.90;;;;;;5092599;28;20031;-77
2021/03/07 06:54:21;;;;;;;9.35;4.18;;;10.80;99.90;;;;;;5092719;28;20032;-76
2021/03/07 06:56:51;;;;;;;7.80;3.80;;;10.80;99.90;;;;;;5093403;28;20346;-77
2021/03/07 06:59:23;;;;;;;8.30;4.45;;;10.80;99.90;;;;;;5092560;28;20142;-77
2021/03/07 07:01:50;;;;;;;6.68;4.28;;;10.90;99.90;;;;;;5092624;28;20024;-78
2021/03/07 07:04:17;;;;;;;6.68;4.60;;;10.90;99.90;;;;;;5091211;28;20024;-78
2021/03/07 07:07:03;;;;;;;8.75;4.78;;;10.90;99.90;;;;;;5092656;28;20376;-77
2021/03/07 07:09:29;;;;;;;17.17;4.93;;;10.90;99.90;;;;;;5092527;28;20044;-78
2021/03/07 07:11:56;;;;;;;8.00;4.03;;;10.90;99.90;;;;;;5092446;28;20074;-78
2021/03/07 07:14:42;;;;;;;9.98;4.32;;;11.00;99.90;;;;;;5092387;28;20016;-78
2021/03/07 07:17:17;;;;;;;12.90;4.60;;;11.10;99.90;;;;;;5092439;28;20020;-77
2021/03/07 07:19:45;;;;;;;7.93;4.57;;;11.10;99.90;;;;;;5092574;28;20024;-76
2021/03/07 07:22:14;;;;;;;9.90;4.72;;;11.20;99.90;;;;;;5092353;28;20032;-78
2021/03/07 07:24:41;;;;;;;8.95;3.88;;;11.20;99.90;;;;;;5092409;28;20028;-77
2021/03/07 07:27:08;;;;;;;8.95;3.50;;;11.30;99.90;;;;;;5092311;28;20070;-78
2021/03/07 07:29:35;;;;;;;8.25;4.30;;;11.40;99.90;;;;;;5091245;28;20044;-78
2021/03/07 07:32:06;;;;;;;6.53;4.10;;;11.50;99.90;;;;;;5092281;28;20035;-77
2021/03/07 07:34:44;;;;;;;8.75;4.60;;;11.50;99.90;;;;;;5092457;28;20504;-76
2021/03/07 07:37:33;;;;;;;6.25;3.35;;;11.60;99.90;;;;;;5092196;28;20021;-78
2021/03/07 07:40:00;;;;;;;5.40;3.15;;;11.60;99.90;;;;;;5092452;28;20055;-77
2021/03/07 07:42:35;;;;;;;5.93;3.55;;;11.70;99.90;;;;;;5092307;28;20527;-79
2021/03/07 07:45:09;;;;;;;7.18;3.80;;;11.70;99.90;;;;;;5092356;28;20106;-78
2021/03/07 07:47:49;;;;;;;6.47;3.75;;;11.70;99.90;;;;;;5091122;28;20084;-76
2021/03/07 07:50:30;;;;;;;7.82;3.92;;;11.80;99.90;;;;;;5090736;28;20032;-77
2021/03/07 07:52:57;;;;;;;7.15;3.58;;;11.70;99.90;;;;;;5094387;28;20118;-76
2021/03/07 07:55:43;;;;;;;7.65;4.35;;;11.80;99.90;;;;;;5096162;28;20401;-78
2021/03/07 07:58:10;;;;;;;7.45;4.38;;;11.90;99.90;;;;;;5095773;28;20036;-77
2021/03/07 08:00:47;;;;;;;9.02;4.80;;;12.00;99.90;;;;;;5095880;28;20421;-77
2021/03/07 08:03:52;;;;;;;12.00;4.53;;;12.10;99.90;;;;;;5095792;28;20026;-78
2021/03/07 08:06:23;;;;;;;;;;;12.20;99.90;;;;;;5033727;28;20037;-77
2021/03/07 08:08:49;;;;;;;7.70;4.07;;;12.30;99.90;;;;;;5033247;28;20465;-77
2021/03/07 08:11:18;;;;;;;6.40;3.75;;;12.30;99.90;;;;;;5065224;28;20131;-78
2021/03/07 08:13:49;;;;;;;7.82;3.70;;;12.30;99.90;;;;;;5095651;28;20079;-78
2021/03/07 08:16:35;;;;;;;8.75;4.15;;;12.30;99.90;;;;;;5095577;28;20052;-76
2021/03/07 08:19:01;;;;;;;6.43;3.83;;;12.30;99.90;;;;;;5095434;28;20028;-76
2021/03/07 08:21:27;;;;;;;5.82;3.38;;;12.50;99.90;;;;;;5095361;28;20020;-77
2021/03/07 08:23:56;;;;;;;7.97;4.07;;;12.50;99.90;;;;;;5095923;28;20028;-77
2021/03/07 08:26:26;;;;;;;6.35;3.67;;;12.60;99.90;;;;;;5096394;28;20431;-78
2021/03/07 08:28:53;;;;;;;8.90;4.00;;;12.80;99.90;;;;;;5096077;28;20028;-77
2021/03/07 08:31:18;;;;;;;11.80;4.07;;;12.90;99.90;;;;;;5099236;28;20028;-76
2021/03/07 08:33:45;;;;;;;5.45;3.30;;;13.10;99.90;;;;;;5100600;28;20039;-76
2021/03/07 08:36:23;;;;;;;7.50;3.80;;;13.20;99.90;;;;;;5099699;28;20472;-77
2021/03/07 08:38:52;;;;;;;8.70;3.58;;;13.20;99.90;;;;;;5095934;28;20038;-77
2021/03/07 08:41:22;;;;;;;5.78;3.67;;;13.20;99.90;;;;;;5094914;28;20111;-76
2021/03/07 08:43:49;;;;;;;17.48;4.97;;;13.30;99.90;;;;;;5094896;28;20046;-76
2021/03/07 08:46:17;;;;;;;7.25;3.53;;;13.50;99.90;;;;;;5094943;28;20028;-75
2021/03/07 08:48:46;;;;;;;6.30;3.53;;;13.60;99.90;;;;;;5094923;28;20031;-76
2021/03/07 08:51:14;;;;;;;7.63;4.15;;;13.60;99.90;;;;;;5095007;28;20055;-76
2021/03/07 08:53:42;;;;;;;5.80;3.05;;;13.70;99.90;;;;;;5095122;28;20043;-77
2021/03/07 08:56:09;;;;;;;4.50;2.80;;;13.80;99.90;;;;;;5094749;28;20089;-77
2021/03/07 08:58:37;;;;;;;4.82;3.70;;;13.90;99.90;;;;;;5094633;28;20084;-76
2021/03/07 09:01:04;;;;;;;7.30;3.10;;;13.70;99.90;;;;;;5094891;28;20123;-75
2021/03/07 09:03:30;;;;;;;6.40;3.70;;;13.60;99.90;;;;;;5094242;28;20488;-76
2021/03/07 09:05:56;;;;;;;7.63;3.65;;;13.50;99.90;;;;;;5094449;28;20054;-76
2021/03/07 09:08:27;;;;;;;7.43;3.70;;;13.60;99.90;;;;;;5094445;28;20442;-75
2021/03/07 09:11:00;;;;;;;8.68;3.80;;;13.60;99.90;;;;;;5094576;28;20035;-75
2021/03/07 09:13:28;;;;;;;8.70;3.33;;;13.60;99.90;;;;;;5094338;28;20550;-75
2021/03/07 09:15:59;;;;;;;8.43;3.30;;;13.50;99.90;;;;;;5094331;28;20025;-75
2021/03/07 09:18:28;;;;;;;8.18;3.90;;;13.50;99.90;;;;;;5094379;28;20081;-76
2021/03/07 09:20:56;;;;;;;5.50;3.15;;;13.80;99.90;;;;;;5094282;28;20047;-76
2021/03/07 09:23:32;;;;;;;6.13;3.55;;;13.90;99.90;;;;;;5094163;28;20114;-76
2021/03/07 09:26:00;;;;;;;5.57;3.75;;;13.90;99.90;;;;;;5093994;28;20028;-76
2021/03/07 09:28:33;;;;;;;11.82;3.97;;;14.00;99.90;;;;;;5094146;28;20107;-76
2021/03/07 09:31:00;;;;;;;15.25;4.30;;;14.00;99.90;;;;;;5094082;28;20053;-75
2021/03/07 09:33:28;;;;;;;7.13;3.95;;;14.20;99.90;;;;;;5094022;28;20036;-75
2021/03/07 09:36:05;;;;;;;6.40;3.30;;;14.10;99.90;;;;;;5094211;28;20024;-75
2021/03/07 09:38:49;;;;;;;8.07;3.28;;;14.10;99.90;;;;;;5094201;28;20422;-76
2021/03/07 09:41:32;;;;;;;6.57;3.70;;;14.10;99.90;;;;;;5092686;28;20583;-75
2021/03/07 09:44:01;;;;;;;6.30;4.15;;;14.10;99.90;;;;;;5093912;28;20097;-75
2021/03/07 09:46:28;;;;;;;6.78;3.58;;;14.10;99.90;;;;;;5092762;28;20385;-77
2021/03/07 09:49:03;;;;;;;5.03;3.85;;;14.00;99.90;;;;;;5093840;28;20027;-76
2021/03/07 09:51:31;;;;;;;8.10;4.20;;;14.00;99.90;;;;;;5093872;28;20035;-77
2021/03/07 09:53:58;;;;;;;7.15;4.28;;;13.90;99.90;;;;;;5093529;28;20480;-77
2021/03/07 09:56:32;;;;;;;7.28;3.92;;;13.80;99.90;;;;;;5093430;28;20023;-76
2021/03/07 09:59:31;;;;;;;5.25;3.65;;;13.80;99.90;;;;;;5093290;28;20540;-78
2021/03/07 10:02:05;;;;;;;7.35;4.28;;;13.70;99.90;;;;;;5093532;28;20107;-76
2021/03/07 10:04:32;;;;;;;8.30;3.40;;;13.70;99.90;;;;;;5093451;28;20020;-77
2021/03/07 10:07:00;;;;;;;8.20;3.63;;;13.80;99.90;;;;;;5093594;28;20028;-77
2021/03/07 10:09:27;;;;;;;5.93;3.03;;;13.90;99.90;;;;;;5093522;28;20039;-77
2021/03/07 10:12:02;;;;;;;5.13;3.63;;;13.90;99.90;;;;;;5091900;28;20469;-77
2021/03/07 10:14:32;;;;;;;7.03;3.88;;;14.00;99.90;;;;;;5092709;28;20107;-77
2021/03/07 10:16:59;;;;;;;10.73;4.25;;;14.00;99.90;;;;;;5093159;28;20048;-76
2021/03/07 10:19:36;;;;;;;6.88;3.95;;;13.90;99.90;;;;;;5093141;28;20039;-77
2021/03/07 10:22:04;;;;;;;7.03;4.50;;;14.00;99.90;;;;;;5092991;28;20040;-78
2021/03/07 10:24:34;;;;;;;10.00;4.15;;;14.20;99.90;;;;;;5093169;28;20031;-76
2021/03/07 10:27:05;;;;;;;5.65;3.22;;;14.30;99.90;;;;;;5093229;28;20539;-77
2021/03/07 10:29:33;;;;;;;11.55;3.75;;;14.40;99.90;;;;;;5093033;28;20020;-77
2021/03/07 10:32:18;;;;;;;11.75;4.50;;;14.60;99.90;;;;;;5093109;28;20032;-75
2021/03/07 10:34:46;;;;;;;6.55;3.67;;;14.70;99.90;;;;;;5093109;28;20028;-76
2021/03/07 10:37:39;;;;;;;8.63;3.30;;;14.30;99.90;;;;;;5092863;28;20119;-76
2021/03/07 10:40:11;;;;;;;4.75;3.20;;;14.20;99.90;;;;;;5089305;28;20044;-77
2021/03/07 10:42:45;;;;;;;7.20;3.50;;;14.20;99.90;;;;;;5094011;28;20379;-76
2021/03/07 10:45:33;;;;;;;3.50;2.45;;;14.30;99.90;;;;;;5095730;28;20038;-77
2021/03/07 10:48:04;;;;;;;5.72;2.35;;;14.70;99.90;;;;;;5077769;28;20106;-78
2021/03/07 10:50:31;;;;;;;4.65;3.38;;;15.00;99.90;;;;;;5077005;28;20036;-76
2021/03/07 10:52:57;;;;;;;3.65;2.08;;;15.30;99.90;;;;;;5094745;28;20057;-75
2021/03/07 10:55:25;;;;;;;4.68;1.92;;;15.50;99.90;;;;;;5075844;28;20135;-75
2021/03/07 10:57:51;;;;;;;3.72;2.33;;;15.70;99.80;;;;;;5075828;28;20052;-75
2021/03/07 11:00:19;;;;;;;4.50;2.33;;;15.70;99.60;;;;;;5075504;28;20024;-77
2021/03/07 11:02:46;;;;;;;4.38;1.98;;;15.30;99.40;;;;;;5075894;28;20020;-76
2021/03/07 11:05:14;;;;;;;6.60;2.75;;;15.50;99.30;;;;;;5092430;28;20035;-75
2021/03/07 11:07:45;;;;;;;4.05;2.08;;;15.60;99.50;;;;;;5076199;28;20433;-76
2021/03/07 11:10:13;;;;;;;4.18;2.35;;;15.60;99.20;;;;;;5092098;28;20028;-75
2021/03/07 11:12:39;;;;;;;4.68;2.25;;;15.50;98.50;;;;;;5042468;28;20028;-77
2021/03/07 11:15:08;;;;;;;3.05;2.28;;;15.70;99.30;;;;;;5075717;28;20080;-76
2021/03/07 11:17:34;;;;;;;5.68;2.38;;;15.80;99.00;;;;;;5092631;28;20032;-77
2021/03/07 11:20:01;;;;;;;5.70;2.60;;;15.90;98.60;;;;;;5091918;28;20592;-76
2021/03/07 11:22:27;;;;;;;5.30;2.40;;;15.80;98.70;;;;;;5093775;28;20016;-77
2021/03/07 11:24:54;;;;;;;12.07;2.70;;;15.80;98.30;;;;;;5076553;28;20028;-76
2021/03/07 11:27:20;;;;;;;2.58;1.88;;;16.00;98.60;;;;;;5096571;28;20034;-77
2021/03/07 11:29:46;;;;;;;4.18;2.38;;;15.80;98.00;;;;;;5079266;28;20085;-77
2021/03/07 11:32:13;;;;;;;5.38;2.33;;;15.80;97.80;;;;;;5096047;28;20028;-76
2021/03/07 11:34:39;;;;;;;8.52;2.20;;;16.00;98.20;;;;;;5095655;28;20032;-77
2021/03/07 11:37:05;;;;;;;4.35;2.70;;;15.90;97.80;;;;;;5097073;28;20017;-76
2021/03/07 11:39:32;;;;;;;3.75;2.00;;;16.00;98.50;;;;;;5096897;28;20391;-77
2021/03/07 11:41:58;;;;;;;7.55;2.97;;;16.10;98.10;;;;;;5096724;28;20027;-76
2021/03/07 11:44:24;;;;;;;6.90;2.60;;;16.20;98.00;;;;;;5078683;28;20038;-76
2021/03/07 11:46:53;;;;;;;4.05;2.50;;;16.30;97.90;;;;;;5095232;28;20107;-77
2021/03/07 11:49:21;;;;;;;5.65;2.08;;;16.30;97.30;;;;;;5096588;28;20117;-76
2021/03/07 11:51:47;;;;;;;3.78;2.58;;;16.10;97.60;;;;;;5078293;28;20078;-76
2021/03/07 11:54:14;;;;;;;7.05;2.50;;;16.20;97.50;;;;;;5095522;28;20123;-76
2021/03/07 11:56:40;;;;;;;5.47;2.30;;;16.40;97.70;;;;;;5095740;28;20050;-76
2021/03/07 11:59:07;;;;;;;5.78;2.78;;;16.50;97.10;;;;;;5096128;28;20118;-76
2021/03/07 12:01:33;;;;;;;7.10;2.83;;;16.90;96.60;;;;;;5097166;28;20031;-76
2021/03/07 12:04:00;;;;;;;5.13;2.58;;;16.60;96.10;;;;;;5062569;28;20032;-77
2021/03/07 12:06:26;;;;;;;4.45;2.17;;;16.80;96.90;;;;;;5095793;28;20036;-76
2021/03/07 12:08:54;;;;;;;6.40;2.50;;;16.90;96.30;;;;;;5096130;28;20032;-76
2021/03/07 12:11:20;;;;;;;5.38;2.63;;;16.40;96.40;;;;;;5079504;28;20491;-76
2021/03/07 12:13:47;;;;;;;3.47;2.28;;;16.40;96.40;;;;;;5095509;28;20101;-76
2021/03/07 12:16:13;;;;;;;5.93;2.42;;;16.40;96.50;;;;;;5079068;28;20081;-76
2021/03/07 12:18:41;;;;;;;3.33;2.17;;;16.80;96.50;;;;;;5096438;28;20024;-76
2021/03/07 12:21:08;;;;;;;5.18;2.15;;;16.90;95.70;;;;;;5096513;28;20115;-76
2021/03/07 12:23:34;;;;;;;2.28;1.90;;;16.70;96.30;;;;;;5095090;28;20388;-76
2021/03/07 12:26:04;;;;;;;5.28;2.50;;;16.80;96.00;;;;;;5078823;28;20122;-76
2021/03/07 12:28:32;;;;;;;4.32;2.50;;;16.90;96.70;;;;;;5096601;28;20486;-77
2021/03/07 12:30:59;;;;;;;3.45;2.28;;;17.00;96.00;;;;;;5095971;28;20042;-77
2021/03/07 12:33:26;;;;;;;3.53;2.30;;;17.50;95.50;;;;;;5079628;28;20586;-76
2021/03/07 12:35:53;;;;;;;3.30;2.25;;;17.30;95.00;;;;;;5065351;28;20020;-77
2021/03/07 12:38:19;;;;;;;3.05;2.00;;;17.10;95.70;;;;;;5082488;28;20028;-77
2021/03/07 12:40:45;;;;;;;3.35;2.58;;;17.20;95.70;;;;;;5097862;28;20030;-76
2021/03/07 12:43:11;;;;;;;3.35;2.08;;;17.20;95.60;;;;;;5080756;28;20063;-76
2021/03/07 12:45:38;;;;;;;3.33;2.00;;;17.20;95.40;;;;;;5079565;28;20454;-75
2021/03/07 12:48:05;;;;;;;7.85;2.10;;;17.20;94.60;;;;;;5080317;28;20032;-76
2021/03/07 12:50:31;;;;;;;3.63;2.35;;;17.30;94.80;;;;;;5096196;28;20024;-76
2021/03/07 12:52:57;;;;;;;4.80;1.85;;;17.10;94.40;;;;;;5096392;28;20430;-75
2021/03/07 12:55:23;;;;;;;5.90;2.58;;;17.30;94.30;;;;;;5096874;28;20079;-76
2021/03/07 12:57:50;;;;;;;4.85;2.50;;;17.10;94.10;;;;;;5097221;28;20131;-76
2021/03/07 13:00:16;;;;;;;3.78;2.28;;;17.50;94.30;;;;;;5079491;28;20039;-75